createdAt,value
2023-03-28T00:00:51.030Z,93911.69
2023-03-28T00:03:22.811Z,93912.03
2023-03-28T00:06:16.763Z,93931.31
2023-03-28T00:08:46.021Z,93944.50
2023-03-28T00:11:19.668Z,93954.81
2023-03-28T00:13:58.280Z,93978.06
2023-03-28T00:16:32.626Z,93982.72
2023-03-28T00:19:05.896Z,93979.00
2023-03-28T00:21:41.550Z,93986.44
2023-03-28T00:24:14.010Z,94004.16
2023-03-28T00:26:42.790Z,94016.75
2023-03-28T00:29:12.261Z,93999.19
2023-03-28T00:31:39.868Z,93991.09
2023-03-28T00:34:07.220Z,94019.97
2023-03-28T00:36:34.769Z,94042.31
2023-03-28T00:39:07.036Z,94008.50
2023-03-28T00:41:39.988Z,94028.03
2023-03-28T00:44:38.023Z,94035.28
2023-03-28T00:47:06.496Z,94038.13
2023-03-28T00:49:33.987Z,94051.72
2023-03-28T00:52:04.382Z,94046.94
2023-03-28T00:54:39.709Z,94062.28
2023-03-28T00:57:08.377Z,94064.94
2023-03-28T00:59:37.430Z,94074.53
2023-03-28T01:02:06.448Z,94069.69
2023-03-28T01:04:46.436Z,94077.38
2023-03-28T01:07:16.467Z,94050.38
2023-03-28T01:09:43.649Z,94077.22
2023-03-28T01:12:11.764Z,94087.38
2023-03-28T01:14:40.146Z,94063.97
2023-03-28T01:17:08.925Z,94080.06
2023-03-28T01:19:42.697Z,94111.72
2023-03-28T01:22:13.922Z,94114.72
2023-03-28T01:25:18.665Z,94124.66
2023-03-28T01:28:05.776Z,94145.75
2023-03-28T01:31:19.176Z,94152.63
2023-03-28T01:34:30.464Z,94151.09
2023-03-28T01:37:00.518Z,94137.97
2023-03-28T01:39:43.205Z,94130.88
2023-03-28T01:42:34.543Z,94144.06
2023-03-28T01:45:09.479Z,94143.50
2023-03-28T01:47:41.287Z,94109.28
2023-03-28T01:50:21.517Z,94144.50
2023-03-28T01:53:14.233Z,94150.81
2023-03-28T01:55:48.777Z,94147.97
2023-03-28T01:58:37.724Z,94155.72
2023-03-28T02:01:23.095Z,94139.19
2023-03-28T02:04:01.748Z,94150.75
2023-03-28T02:06:38.852Z,94134.34
2023-03-28T02:09:13.480Z,94157.44
2023-03-28T02:12:33.687Z,94156.22
2023-03-28T02:15:15.912Z,94150.56
2023-03-28T02:18:12.362Z,94147.72
2023-03-28T02:21:09.543Z,94139.09
2023-03-28T02:23:52.467Z,94143.50
2023-03-28T02:26:33.601Z,94074.59
2023-03-28T02:29:30.757Z,94132.41
2023-03-28T02:32:27.120Z,94150.50
2023-03-28T02:34:55.516Z,94150.50
2023-03-28T02:38:03.147Z,94142.91
2023-03-28T02:40:39.608Z,94144.69
2023-03-28T02:43:15.866Z,94142.59
2023-03-28T02:46:05.430Z,94156.56
2023-03-28T02:48:35.318Z,94174.78
2023-03-28T02:51:23.757Z,94124.25
2023-03-28T02:53:50.813Z,94148.47
2023-03-28T02:56:20.253Z,94139.56
2023-03-28T02:59:31.616Z,94120.41
2023-03-28T03:01:59.433Z,94129.44
2023-03-28T03:04:26.572Z,94138.34
2023-03-28T03:06:53.679Z,94147.22
2023-03-28T03:09:20.918Z,94154.50
2023-03-28T03:11:48.010Z,94153.56
2023-03-28T03:14:14.951Z,94167.09
2023-03-28T03:16:43.461Z,94174.75
2023-03-28T03:19:11.565Z,94163.63
2023-03-28T03:21:38.542Z,94130.19
2023-03-28T03:24:05.876Z,94161.25
2023-03-28T03:26:32.995Z,94171.84
2023-03-28T03:29:04.526Z,94205.44
2023-03-28T03:31:32.921Z,94161.19
2023-03-28T03:34:19.025Z,94180.16
2023-03-28T03:36:55.332Z,94189.50
2023-03-28T03:39:23.428Z,94187.44
2023-03-28T03:41:50.474Z,94183.19
2023-03-28T03:44:17.521Z,94189.50
2023-03-28T03:46:44.703Z,94221.22
2023-03-28T03:49:13.221Z,94215.38
2023-03-28T03:51:41.308Z,94232.16
2023-03-28T03:54:13.397Z,94199.66
2023-03-28T03:56:43.108Z,94236.84
2023-03-28T03:59:11.690Z,94214.41
2023-03-28T04:01:41.633Z,94217.44
2023-03-28T04:04:28.311Z,94220.47
2023-03-28T04:07:27.387Z,94225.94
2023-03-28T04:09:57.062Z,94244.91
2023-03-28T04:12:26.889Z,94247.94
2023-03-28T04:14:55.845Z,94249.19
2023-03-28T04:17:35.433Z,94224.13
2023-03-28T04:20:13.846Z,94253.41
2023-03-28T04:23:01.008Z,94257.44
2023-03-28T04:25:29.958Z,94257.03
2023-03-28T04:28:03.961Z,94260.06
2023-03-28T04:30:36.400Z,94291.78
2023-03-28T04:33:25.340Z,94258.22
2023-03-28T04:36:00.281Z,94259.03
2023-03-28T04:38:36.313Z,94286.31
2023-03-28T04:41:41.682Z,94286.56
2023-03-28T04:44:26.047Z,94300.09
2023-03-28T04:47:01.792Z,94307.38
2023-03-28T04:49:28.980Z,94309.59
2023-03-28T04:51:56.254Z,94325.16
2023-03-28T04:54:23.223Z,94340.72
2023-03-28T04:57:06.003Z,94354.88
2023-03-28T04:59:43.152Z,94148.09
2023-03-28T05:02:15.739Z,94360.97
2023-03-28T05:04:45.683Z,94352.47
2023-03-28T05:07:15.610Z,94335.91
2023-03-28T05:09:42.818Z,94346.00
2023-03-28T05:12:09.617Z,94355.31
2023-03-28T05:14:54.158Z,94344.19
2023-03-28T05:17:21.300Z,94337.09
2023-03-28T05:19:48.128Z,94351.66
2023-03-28T05:22:18.504Z,94344.16
2023-03-28T05:24:45.577Z,94320.53
2023-03-28T05:27:20.716Z,94348.41
2023-03-28T05:29:48.327Z,94349.59
2023-03-28T05:32:17.239Z,94354.06
2023-03-28T05:34:45.909Z,94288.41
2023-03-28T05:37:13.380Z,94362.34
2023-03-28T05:39:59.791Z,94338.31
2023-03-28T05:42:31.366Z,94364.19
2023-03-28T05:44:58.700Z,94347.63
2023-03-28T05:47:54.585Z,94379.38
2023-03-28T05:50:24.220Z,94367.63
2023-03-28T05:52:56.227Z,94373.53
2023-03-28T05:55:26.505Z,94351.03
2023-03-28T05:57:53.916Z,94363.00
2023-03-28T06:00:24.507Z,94389.28
2023-03-28T06:02:52.844Z,94359.13
2023-03-28T06:05:29.405Z,94400.78
2023-03-28T06:07:56.940Z,94390.84
2023-03-28T06:10:25.966Z,94373.06
2023-03-28T06:13:11.872Z,94386.97
2023-03-28T06:15:38.901Z,94415.50
2023-03-28T06:18:09.110Z,94395.28
2023-03-28T06:20:43.525Z,94405.19
2023-03-28T06:23:11.179Z,94412.25
2023-03-28T06:25:38.163Z,94399.94
2023-03-28T06:28:05.513Z,94416.31
2023-03-28T06:30:37.994Z,94422.16
2023-03-28T06:33:08.273Z,94418.09
2023-03-28T06:35:36.113Z,94434.53
2023-03-28T06:38:03.597Z,94444.47
2023-03-28T06:40:31.085Z,94437.59
2023-03-28T06:42:59.982Z,94444.44
2023-03-28T06:45:41.047Z,94433.13
2023-03-28T06:48:12.532Z,94447.47
2023-03-28T06:50:59.122Z,94440.59
2023-03-28T06:53:28.136Z,94431.66
2023-03-28T06:55:55.809Z,94446.47
2023-03-28T06:58:23.752Z,94422.97
2023-03-28T07:00:59.552Z,94441.78
2023-03-28T07:03:37.944Z,94444.19
2023-03-28T07:06:08.073Z,94444.97
2023-03-28T07:08:36.006Z,94451.28
2023-03-28T07:11:03.702Z,94457.97
2023-03-28T07:13:31.957Z,94459.75
2023-03-28T07:16:15.577Z,94480.22
2023-03-28T07:18:44.078Z,94472.97
2023-03-28T07:21:21.319Z,94460.16
2023-03-28T07:23:48.375Z,94497.63
2023-03-28T07:26:19.594Z,94498.03
2023-03-28T07:28:47.147Z,94495.59
2023-03-28T07:31:14.166Z,94475.13
2023-03-28T07:33:41.376Z,94481.88
2023-03-28T07:36:15.754Z,94519.69
2023-03-28T07:38:49.035Z,94532.88
2023-03-28T07:41:18.935Z,94513.00
2023-03-28T07:43:45.930Z,94541.94
2023-03-28T07:46:15.134Z,94539.28
2023-03-28T07:48:42.529Z,94529.03
2023-03-28T07:51:11.314Z,94522.75
2023-03-28T07:53:39.122Z,94528.44
2023-03-28T07:56:12.190Z,94525.81
2023-03-28T07:59:14.021Z,94536.94
2023-03-28T08:01:45.752Z,94514.06
2023-03-28T08:04:14.012Z,94522.94
2023-03-28T08:07:02.300Z,94516.25
2023-03-28T08:09:29.352Z,94531.03
2023-03-28T08:12:09.407Z,94533.38
2023-03-28T08:14:36.320Z,94539.50
2023-03-28T08:17:03.939Z,94554.47
2023-03-28T08:19:31.465Z,94551.16
2023-03-28T08:22:11.678Z,94551.88
2023-03-28T08:24:47.032Z,94568.16
2023-03-28T08:27:19.265Z,94534.03
2023-03-28T08:29:49.875Z,94550.22
2023-03-28T08:32:16.876Z,94556.91
2023-03-28T08:34:44.207Z,94567.47
2023-03-28T08:37:15.327Z,94572.78
2023-03-28T08:39:45.780Z,94568.09
2023-03-28T08:42:38.313Z,94575.81
2023-03-28T08:45:26.949Z,94585.41
2023-03-28T08:48:19.443Z,94596.09
2023-03-28T08:50:53.533Z,94598.78
2023-03-28T08:53:26.899Z,94597.44
2023-03-28T08:55:56.460Z,94591.13
2023-03-28T08:58:27.234Z,94594.19
2023-03-28T09:00:54.434Z,94588.22
2023-03-28T09:03:24.224Z,94582.91
2023-03-28T09:06:37.043Z,94601.25
2023-03-28T09:09:50.021Z,94582.22
2023-03-28T09:12:50.968Z,94597.69
2023-03-28T09:15:27.855Z,94612.72
2023-03-28T09:18:04.205Z,94603.16
2023-03-28T09:20:50.343Z,94610.16
2023-03-28T09:23:47.706Z,94614.78
2023-03-28T09:26:27.969Z,94609.22
2023-03-28T09:29:10.301Z,94604.97
2023-03-28T09:31:48.054Z,94602.66
2023-03-28T09:34:23.102Z,94614.50
2023-03-28T09:36:56.430Z,94621.06
2023-03-28T09:39:34.965Z,94617.19
2023-03-28T09:42:13.970Z,94619.50
2023-03-28T09:45:23.989Z,94622.72
2023-03-28T09:48:00.742Z,94632.00
2023-03-28T09:50:34.607Z,94615.97
2023-03-28T09:53:02.992Z,94619.16
2023-03-28T09:55:31.185Z,94621.69
2023-03-28T09:58:12.327Z,94628.66
2023-03-28T10:01:23.375Z,94577.38
2023-03-28T10:04:28.270Z,94619.06
2023-03-28T10:07:42.877Z,94636.81
2023-03-28T10:10:21.783Z,94621.22
2023-03-28T10:12:58.907Z,94610.50
2023-03-28T10:15:35.208Z,94620.03
2023-03-28T10:18:34.651Z,94615.75
2023-03-28T10:21:37.193Z,94620.16
2023-03-28T10:24:20.261Z,94616.47
2023-03-28T10:26:57.126Z,94615.59
2023-03-28T10:29:27.079Z,94622.03
2023-03-28T10:31:55.086Z,94628.06
2023-03-28T10:35:17.708Z,94644.13
2023-03-28T10:37:55.104Z,94633.88
2023-03-28T10:40:33.184Z,94645.06
2023-03-28T10:43:03.048Z,94643.78
2023-03-28T10:45:51.139Z,94641.16
2023-03-28T10:48:36.555Z,94651.78
2023-03-28T10:51:17.490Z,94646.25
2023-03-28T10:53:52.218Z,94647.63
2023-03-28T10:56:38.600Z,94645.09
2023-03-28T10:59:10.933Z,94642.88
2023-03-28T11:01:44.562Z,94612.31
2023-03-28T11:04:19.406Z,94621.06
2023-03-28T11:06:54.949Z,94622.50
2023-03-28T11:09:42.546Z,94631.34
2023-03-28T11:12:59.083Z,94640.63
2023-03-28T11:15:32.714Z,94646.53
2023-03-28T11:18:28.056Z,94647.66
2023-03-28T11:21:35.537Z,94643.91
2023-03-28T11:24:17.605Z,94606.78
2023-03-28T11:27:16.100Z,94637.31
2023-03-28T11:29:53.855Z,94627.06
2023-03-28T11:32:31.000Z,94617.44
2023-03-28T11:35:14.080Z,94634.56
2023-03-28T11:37:59.437Z,94626.06
2023-03-28T11:40:44.956Z,94629.16
2023-03-28T11:43:19.956Z,94629.16
2023-03-28T11:45:53.182Z,94617.97
2023-03-28T11:48:39.206Z,94636.63
2023-03-28T11:51:34.028Z,94645.81
2023-03-28T11:54:10.723Z,94632.84
2023-03-28T11:56:52.200Z,94632.44
2023-03-28T11:59:57.895Z,94627.75
2023-03-28T12:02:30.382Z,94619.41
2023-03-28T12:05:05.497Z,94629.38
2023-03-28T12:07:38.116Z,94625.28
2023-03-28T12:10:28.474Z,94631.34
2023-03-28T12:13:04.861Z,94613.81
2023-03-28T12:15:50.183Z,94639.91
2023-03-28T12:19:01.583Z,94665.72
2023-03-28T12:21:57.520Z,94663.22
2023-03-28T12:24:53.127Z,94638.53
2023-03-28T12:27:51.072Z,94615.16
2023-03-28T12:30:35.809Z,94660.47
2023-03-28T12:33:32.426Z,94649.69
2023-03-28T12:37:04.125Z,94645.44
2023-03-28T12:39:55.783Z,94649.25
2023-03-28T12:42:29.268Z,94659.56
2023-03-28T12:45:01.844Z,94663.19
2023-03-28T12:47:38.662Z,94672.75
2023-03-28T12:50:31.052Z,94659.94
2023-03-28T12:52:59.489Z,94663.75
2023-03-28T12:55:48.459Z,94662.44
2023-03-28T12:58:22.961Z,94692.19
2023-03-28T13:01:18.176Z,94673.38
2023-03-28T13:04:29.467Z,94655.03
2023-03-28T13:07:47.980Z,94695.69
2023-03-28T13:10:27.116Z,94670.00
2023-03-28T13:13:19.639Z,94686.91
2023-03-28T13:16:05.795Z,94677.34
2023-03-28T13:18:34.666Z,94691.06
2023-03-28T13:21:05.102Z,94683.06
2023-03-28T13:23:44.967Z,94682.81
2023-03-28T13:26:12.601Z,94716.06
2023-03-28T13:28:51.674Z,94682.03
2023-03-28T13:31:20.547Z,94694.81
2023-03-28T13:33:52.926Z,94701.75
2023-03-28T13:36:23.455Z,94695.91
2023-03-28T13:39:20.469Z,94687.28
2023-03-28T13:41:47.606Z,94695.28
2023-03-28T13:44:20.265Z,94714.00
2023-03-28T13:46:52.936Z,94714.50
2023-03-28T13:49:31.713Z,94680.91
2023-03-28T13:52:14.896Z,94710.75
2023-03-28T13:54:42.291Z,94672.16
2023-03-28T13:57:20.801Z,94715.56
2023-03-28T14:00:05.143Z,94705.28
2023-03-28T14:02:47.013Z,94699.34
2023-03-28T14:05:32.171Z,94678.63
2023-03-28T14:08:20.844Z,94695.88
2023-03-28T14:10:51.094Z,94693.63
2023-03-28T14:13:31.024Z,94699.50
2023-03-28T14:15:58.448Z,94699.41
2023-03-28T14:19:02.850Z,94700.31
2023-03-28T14:21:31.943Z,94709.06
2023-03-28T14:24:01.374Z,94705.38
2023-03-28T14:26:32.182Z,94720.69
2023-03-28T14:29:06.109Z,94716.13
2023-03-28T14:31:37.382Z,94737.28
2023-03-28T14:34:26.572Z,94730.97
2023-03-28T14:36:59.197Z,94740.16
2023-03-28T14:39:34.987Z,94741.25
2023-03-28T14:42:05.598Z,94716.25
2023-03-28T14:44:37.466Z,94757.25
2023-03-28T14:47:04.898Z,94762.94
2023-03-28T14:49:32.799Z,94761.41
2023-03-28T14:52:04.515Z,94730.38
2023-03-28T14:54:34.906Z,94757.31
2023-03-28T14:57:04.497Z,94760.66
2023-03-28T14:59:33.878Z,94764.34
2023-03-28T15:02:04.380Z,94765.88
2023-03-28T15:04:32.164Z,94765.28
2023-03-28T15:06:59.137Z,94747.09
2023-03-28T15:09:33.037Z,94774.69
2023-03-28T15:12:09.171Z,94779.16
2023-03-28T15:14:42.686Z,94762.31
2023-03-28T15:17:18.028Z,94778.94
2023-03-28T15:19:48.222Z,94777.56
2023-03-28T15:22:22.178Z,94784.41
2023-03-28T15:24:52.890Z,94795.97
2023-03-28T15:27:40.438Z,94726.25
2023-03-28T15:30:15.640Z,94784.06
2023-03-28T15:32:43.160Z,94776.75
2023-03-28T15:35:40.885Z,94743.16
2023-03-28T15:38:25.414Z,94781.75
2023-03-28T15:41:09.335Z,94800.66
2023-03-28T15:43:52.665Z,94791.78
2023-03-28T15:46:22.181Z,94802.44
2023-03-28T15:48:51.125Z,94821.22
2023-03-28T15:51:19.245Z,94818.72
2023-03-28T15:53:49.083Z,94821.97
2023-03-28T15:56:26.847Z,94845.56
2023-03-28T15:59:00.837Z,94845.66
2023-03-28T16:01:30.671Z,94843.69
2023-03-28T16:04:27.862Z,94854.16
2023-03-28T16:07:04.545Z,94865.81
2023-03-28T16:09:32.289Z,94853.44
2023-03-28T16:12:00.800Z,94848.88
2023-03-28T16:14:49.440Z,94884.53
2023-03-28T16:17:42.150Z,94876.84
2023-03-28T16:20:26.126Z,94880.72
2023-03-28T16:22:56.288Z,94890.59
2023-03-28T16:25:23.213Z,94905.22
2023-03-28T16:27:50.502Z,94885.72
2023-03-28T16:30:29.457Z,94920.38
2023-03-28T16:32:56.884Z,94915.94
2023-03-28T16:35:27.061Z,94929.75
2023-03-28T16:37:54.874Z,94930.94
2023-03-28T16:40:22.738Z,94930.31
2023-03-28T16:42:51.048Z,94942.25
2023-03-28T16:45:20.368Z,94945.91
2023-03-28T16:47:48.328Z,94944.88
2023-03-28T16:50:16.488Z,94937.31
2023-03-28T16:52:43.610Z,94948.03
2023-03-28T16:55:16.223Z,94949.63
2023-03-28T16:57:45.169Z,94973.31
2023-03-28T17:00:18.043Z,94947.94
2023-03-28T17:02:47.746Z,94967.56
2023-03-28T17:05:16.796Z,94966.75
2023-03-28T17:07:43.768Z,94969.94
2023-03-28T17:10:11.627Z,94976.41
2023-03-28T17:12:40.015Z,94977.13
2023-03-28T17:15:09.018Z,94998.56
2023-03-28T17:17:36.392Z,94999.16
2023-03-28T17:20:04.940Z,94994.00
2023-03-28T17:22:31.993Z,94972.78
2023-03-28T17:25:00.577Z,94996.34
2023-03-28T17:27:28.269Z,94965.22
2023-03-28T17:29:55.452Z,94980.84
2023-03-28T17:32:26.470Z,94993.75
2023-03-28T17:34:53.962Z,95000.91
2023-03-28T17:37:22.470Z,95016.25
2023-03-28T17:39:49.530Z,95008.13
2023-03-28T17:42:16.962Z,95013.69
2023-03-28T17:44:44.272Z,95027.66
2023-03-28T17:47:15.493Z,95025.63
2023-03-28T17:49:43.244Z,95031.81
2023-03-28T17:52:10.749Z,95043.22
2023-03-28T17:54:38.187Z,95053.81
2023-03-28T17:57:06.870Z,95076.66
2023-03-28T17:59:34.080Z,95077.13
2023-03-28T18:02:02.312Z,95101.53
2023-03-28T18:04:30.305Z,95094.53
2023-03-28T18:07:17.396Z,95055.91
2023-03-28T18:09:46.073Z,95081.41
2023-03-28T18:12:13.635Z,95087.59
2023-03-28T18:14:40.815Z,95114.72
2023-03-28T18:17:08.463Z,95102.91
2023-03-28T18:19:35.990Z,95103.69
2023-03-28T18:22:03.663Z,95081.06
2023-03-28T18:24:30.756Z,95087.03
2023-03-28T18:26:59.198Z,95119.28
2023-03-28T18:29:26.166Z,95115.66
2023-03-28T18:31:53.296Z,95128.59
2023-03-28T18:34:20.611Z,95137.25
2023-03-28T18:36:48.381Z,95131.97
2023-03-28T18:39:16.176Z,95130.34
2023-03-28T18:41:43.292Z,95122.38
2023-03-28T18:44:10.753Z,95132.44
2023-03-28T18:46:37.930Z,95148.66
2023-03-28T18:49:04.874Z,95156.34
2023-03-28T18:51:32.171Z,95146.59
2023-03-28T18:54:03.878Z,95169.50
2023-03-28T18:56:32.182Z,95146.22
2023-03-28T18:58:59.410Z,95168.59
2023-03-28T19:01:30.140Z,95185.81
2023-03-28T19:03:57.863Z,95179.38
2023-03-28T19:06:25.184Z,95168.31
2023-03-28T19:08:52.458Z,95194.25
2023-03-28T19:11:19.834Z,95187.53
2023-03-28T19:13:47.119Z,95176.31
2023-03-28T19:16:16.587Z,95092.66
2023-03-28T19:18:45.405Z,95169.06
2023-03-28T19:21:12.982Z,95147.09
2023-03-28T19:23:40.514Z,95180.09
2023-03-28T19:26:09.634Z,95190.50
2023-03-28T19:28:36.759Z,95182.00
2023-03-28T19:31:07.029Z,95168.66
2023-03-28T19:33:35.919Z,95189.41
2023-03-28T19:36:03.680Z,95192.94
2023-03-28T19:38:33.578Z,95205.53
2023-03-28T19:41:03.894Z,95208.31
2023-03-28T19:43:31.411Z,95198.59
2023-03-28T19:46:04.396Z,95185.25
2023-03-28T19:48:32.695Z,95196.94
2023-03-28T19:50:59.680Z,95186.50
2023-03-28T19:53:26.861Z,95180.22
2023-03-28T19:55:56.764Z,95196.00
2023-03-28T19:58:24.452Z,95197.19
2023-03-28T20:00:52.163Z,95206.25
2023-03-28T20:03:19.426Z,95202.81
2023-03-28T20:05:47.926Z,95204.81
2023-03-28T20:08:16.195Z,95206.59
2023-03-28T20:10:45.065Z,95210.31
2023-03-28T20:13:12.453Z,95215.75
2023-03-28T20:15:41.599Z,95233.50
2023-03-28T20:18:20.426Z,95221.38
2023-03-28T20:20:53.061Z,95208.38
2023-03-28T20:23:23.626Z,95214.28
2023-03-28T20:25:52.332Z,95244.41
2023-03-28T20:28:21.111Z,95215.44
2023-03-28T20:30:48.388Z,95213.09
2023-03-28T20:33:15.650Z,95227.97
2023-03-28T20:35:42.955Z,95223.22
2023-03-28T20:38:09.986Z,95236.84
2023-03-28T20:40:40.828Z,95222.97
2023-03-28T20:43:10.173Z,95242.97
2023-03-28T20:45:38.648Z,95245.78
2023-03-28T20:48:10.537Z,95230.25
2023-03-28T20:50:41.439Z,95247.59
2023-03-28T20:53:09.239Z,95255.28
2023-03-28T20:55:36.216Z,95252.28
2023-03-28T20:58:03.425Z,95230.03
2023-03-28T21:00:32.154Z,95250.44
2023-03-28T21:02:59.850Z,95236.19
2023-03-28T21:05:27.547Z,95255.94
2023-03-28T21:07:55.580Z,95238.38
2023-03-28T21:10:23.408Z,95251.34
2023-03-28T21:12:51.050Z,95245.75
2023-03-28T21:15:18.219Z,95213.47
2023-03-28T21:17:49.474Z,95257.53
2023-03-28T21:20:35.358Z,95248.19
2023-03-28T21:23:02.300Z,95247.59
2023-03-28T21:25:29.275Z,95259.94
2023-03-28T21:27:57.056Z,95227.75
2023-03-28T21:30:24.298Z,95251.75
2023-03-28T21:32:51.197Z,95276.25
2023-03-28T21:35:19.152Z,95271.25
2023-03-28T21:37:47.254Z,95284.41
2023-03-28T21:40:14.467Z,95281.78
2023-03-28T21:42:44.511Z,95281.25
2023-03-28T21:45:21.174Z,95263.03
2023-03-28T21:47:51.913Z,95280.00
2023-03-28T21:50:24.375Z,95275.81
2023-03-28T21:52:53.495Z,95261.56
2023-03-28T21:55:28.837Z,95279.16
2023-03-28T21:57:57.994Z,95298.56
2023-03-28T22:00:29.451Z,95291.31
2023-03-28T22:02:57.058Z,95282.88
2023-03-28T22:05:30.129Z,95317.25
2023-03-28T22:08:06.387Z,95308.06
2023-03-28T22:11:00.465Z,95313.34
2023-03-28T22:13:30.082Z,95313.69
2023-03-28T22:16:01.729Z,95320.84
2023-03-28T22:18:34.193Z,95315.81
2023-03-28T22:21:06.690Z,95332.13
2023-03-28T22:23:33.777Z,95310.97
2023-03-28T22:26:02.052Z,95340.34
2023-03-28T22:28:31.591Z,95340.88
2023-03-28T22:31:00.293Z,95328.72
2023-03-28T22:33:32.123Z,95329.31
2023-03-28T22:36:05.175Z,95329.31
2023-03-28T22:38:40.484Z,95330.03
2023-03-28T22:41:08.964Z,95329.09
2023-03-28T22:43:37.526Z,95319.81
2023-03-28T22:46:06.400Z,95329.31
2023-03-28T22:48:33.344Z,95334.22
2023-03-28T22:51:01.652Z,95319.88
2023-03-28T22:53:29.014Z,95332.28
2023-03-28T22:55:57.760Z,95320.06
2023-03-28T22:58:32.765Z,95337.59
2023-03-28T23:01:00.945Z,95331.88
2023-03-28T23:03:30.133Z,95310.31
2023-03-28T23:06:08.092Z,95328.81
2023-03-28T23:08:36.768Z,95328.81
2023-03-28T23:11:05.204Z,95315.44
2023-03-28T23:13:36.943Z,95303.81
2023-03-28T23:16:04.457Z,95337.09
2023-03-28T23:18:36.408Z,95317.81
2023-03-28T23:21:04.418Z,95350.22
2023-03-28T23:23:33.424Z,95347.94
2023-03-28T23:26:04.989Z,95345.97
2023-03-28T23:28:36.459Z,95354.84
2023-03-28T23:31:08.933Z,95322.81
2023-03-28T23:33:38.957Z,95357.16
2023-03-28T23:36:15.366Z,95362.91
2023-03-28T23:38:43.222Z,95271.31
2023-03-28T23:41:10.573Z,95362.75
2023-03-28T23:43:37.968Z,95357.81
2023-03-28T23:46:05.595Z,95341.66
2023-03-28T23:48:32.804Z,95349.69
2023-03-28T23:51:02.059Z,95363.44
2023-03-28T23:53:29.975Z,95341.53
2023-03-28T23:55:57.026Z,95341.97
2023-03-28T23:58:24.090Z,95348.09
